Time;durP1;ratioP1;P1;durP2;ratioP2;P2;SDS_P1;SDS_P2;PMS_P1;PMS_P2;Temp;Humidity;BMP_temperature;BMP_pressure;BME280_temperature;BME280_humidity;BME280_pressure;Samples;Min_cycle;Max_cycle;Signal;HPM_P1;HPM_P2
2023/03/01 00:02:00;;;;;;;;;;;-1.80;99.90;;;;;;5044917;28;19929;-95
2023/03/01 00:04:29;;;;;;;;;;;-1.70;99.90;;;;;;5023983;28;19952;-94
2023/03/01 00:06:56;;;;;;;;;;;-1.70;99.90;;;;;;5052864;28;19929;-94
2023/03/01 00:09:22;;;;;;;;;;;-1.80;99.90;;;;;;5031224;28;19928;-94
2023/03/01 00:11:48;;;;;;;;;;;-4.40;99.90;;;;;;5029528;28;19929;-94
2023/03/01 00:14:16;;;;;;;;;;;-1.80;99.90;;;;;;5028785;28;19984;-94
2023/03/01 00:16:42;;;;;;;;;;;-1.80;99.90;;;;;;5029869;28;19948;-95
2023/03/01 00:19:12;;;;;;;;;;;-1.80;99.90;;;;;;5029946;28;19925;-93
2023/03/01 00:21:44;;;;;;;;;;;-1.70;99.90;;;;;;5028500;28;19952;-94
2023/03/01 00:24:10;;;;;;;;;;;-1.70;99.90;;;;;;5050553;28;19969;-95
2023/03/01 00:26:36;;;;;;;;;;;-1.70;99.90;;;;;;4999372;28;19925;-94
2023/03/01 00:29:02;;;;;;;;;;;-1.80;99.90;;;;;;5027609;28;20539;-96
2023/03/01 00:31:29;;;;;;;;;;;-1.60;99.90;;;;;;4993339;28;19989;-95
2023/03/01 00:33:57;;;;;;;;;;;-1.60;99.90;;;;;;5039546;28;19935;-94
2023/03/01 00:36:23;;;;;;;;;;;-1.60;99.90;;;;;;5046115;28;19913;-95
2023/03/01 00:38:50;;;;;;;;;;;-1.60;99.90;;;;;;5026390;28;19929;-94
2023/03/01 00:41:17;;;;;;;;;;;-1.70;99.90;;;;;;5029783;28;19948;-95
2023/03/01 00:43:43;;;;;;;;;;;-1.70;99.90;;;;;;5018006;28;19926;-96
2023/03/01 00:46:10;;;;;;;;;;;-1.80;99.90;;;;;;5034887;28;20281;-95
2023/03/01 00:48:37;;;;;;;;;;;-1.80;99.90;;;;;;5035301;28;19921;-95
2023/03/01 00:51:06;;;;;;;;;;;-1.80;99.90;;;;;;5029111;28;19926;-94
2023/03/01 00:53:31;;;;;;;;;;;-1.80;99.90;;;;;;5011287;28;19948;-94
2023/03/01 00:55:58;;;;;;;;;;;-1.70;99.90;;;;;;5058446;28;20047;-95
2023/03/01 00:58:24;;;;;;;;;;;-1.90;99.90;;;;;;5024296;28;19925;-94
2023/03/01 01:00:50;;;;;;;;;;;-2.00;99.90;;;;;;5024196;28;19925;-92
2023/03/01 01:03:15;;;;;;;;;;;-2.10;99.90;;;;;;5030930;28;19936;-96
2023/03/01 01:05:41;;;;;;;;;;;-2.10;99.90;;;;;;5021309;28;20404;-93
2023/03/01 01:08:07;;;;;;;;;;;-2.20;99.90;;;;;;5022805;28;19965;-93
2023/03/01 01:10:35;;;;;;;;;;;-2.20;99.90;;;;;;4993905;28;20024;-94
2023/03/01 01:13:01;;;;;;;;;;;-2.20;99.90;;;;;;5000497;28;20412;-95
2023/03/01 01:15:27;;;;;;;;;;;-2.20;99.90;;;;;;5008328;28;19925;-93
2023/03/01 01:17:53;;;;;;;;;;;-2.30;99.90;;;;;;5036654;28;19932;-93
2023/03/01 01:20:19;;;;;;;;;;;-2.40;99.90;;;;;;5021869;28;20417;-93
2023/03/01 01:22:44;;;;;;;;;;;-2.50;99.90;;;;;;5024607;28;20034;-94
2023/03/01 01:25:10;;;;;;;;;;;-2.50;99.90;;;;;;5008032;28;20016;-95
2023/03/01 01:27:36;;;;;;;;;;;-2.60;99.90;;;;;;5039286;28;19944;-93
2023/03/01 01:30:02;;;;;;;;;;;-2.70;99.90;;;;;;5006547;28;19925;-95
2023/03/01 01:32:28;;;;;;;;;;;-2.80;99.90;;;;;;5008039;28;19929;-93
2023/03/01 01:34:54;;;;;;;;;;;-2.90;99.90;;;;;;5015894;28;19976;-92
2023/03/01 01:37:19;;;;;;;;;;;-3.00;99.90;;;;;;5007398;28;19925;-93
2023/03/01 01:39:45;;;;;;;;;;;-3.10;99.90;;;;;;5019911;28;19947;-93
2023/03/01 01:42:15;;;;;;;;;;;-3.20;99.90;;;;;;5004290;28;19940;-94
2023/03/01 01:44:42;;;;;;;;;;;-3.20;99.90;;;;;;5016392;28;19929;-93
2023/03/01 01:47:14;;;;;;;;;;;-3.40;99.90;;;;;;5016102;28;19929;-94
2023/03/01 01:49:48;;;;;;;;;;;-3.40;99.90;;;;;;5025608;28;19997;-92
2023/03/01 01:52:22;;;;;;;;;;;-3.50;99.90;;;;;;5026177;28;19925;-92
2023/03/01 01:55:06;;;;;;;;;;;-3.50;99.90;;;;;;5048331;28;20273;-92
2023/03/01 01:57:35;;;;;;;;;;;-3.50;99.90;;;;;;5026322;28;19928;-92
2023/03/01 02:00:07;;;;;;;;;;;-3.40;99.90;;;;;;5047681;28;19983;-93
2023/03/01 02:02:33;;;;;;;;;;;-3.60;99.90;;;;;;5040359;28;19925;-94
2023/03/01 02:05:03;;;;;;;;;;;-3.60;99.90;;;;;;5002932;28;19959;-94
2023/03/01 02:07:30;;;;;;;;;;;-3.60;99.90;;;;;;5034193;28;19954;-93
2023/03/01 02:09:55;;;;;;;;;;;-3.70;99.90;;;;;;5034642;28;19921;-93
2023/03/01 02:12:24;;;;;;;;;;;-3.80;99.90;;;;;;5035396;28;19947;-94
2023/03/01 02:14:50;;;;;;;;;;;-3.90;99.90;;;;;;5035778;28;19924;-92
2023/03/01 02:17:16;;;;;;;;;;;-3.90;99.90;;;;;;5023364;28;19932;-92
2023/03/01 02:19:55;;;;;;;;;;;-3.90;99.90;;;;;;5010524;28;19929;-94
2023/03/01 02:22:21;;;;;;;;;;;-4.00;99.90;;;;;;5036985;28;19924;-94
2023/03/01 02:24:52;;;;;;;;;;;-4.00;99.90;;;;;;5036320;28;19925;-93
2023/03/01 02:27:21;;;;;;;;;;;-4.00;99.90;;;;;;5020952;28;20035;-93
2023/03/01 02:29:47;;;;;;;;;;;-3.90;99.90;;;;;;5027551;28;20389;-92
2023/03/01 02:32:13;;;;;;;;;;;-3.90;99.90;;;;;;5026734;28;19936;-92
2023/03/01 02:34:39;;;;;;;;;;;-4.00;99.90;;;;;;5021927;28;19964;-95
2023/03/01 02:37:07;;;;;;;;;;;-4.00;99.90;;;;;;5004803;28;19983;-93
2023/03/01 02:39:37;;;;;;;;;;;-3.90;99.90;;;;;;5046280;28;20015;-94
2023/03/01 02:42:03;;;;;;;;;;;-4.00;99.90;;;;;;5039208;28;19948;-95
2023/03/01 02:44:29;;;;;;;;;;;-4.00;99.90;;;;;;5004891;28;19929;-93
2023/03/01 02:46:56;;;;;;;;;;;-4.00;99.90;;;;;;5001988;28;19925;-94
2023/03/01 02:49:26;;;;;;;;;;;-4.10;99.90;;;;;;5040327;28;19925;-93
2023/03/01 02:51:59;;;;;;;;;;;-4.00;99.90;;;;;;5019014;28;19972;-93
2023/03/01 02:54:35;;;;;;;;;;;-4.00;99.90;;;;;;5047261;28;19935;-94
2023/03/01 02:57:01;;;;;;;;;;;-4.00;99.90;;;;;;5025384;28;19925;-94
2023/03/01 02:59:30;;;;;;;;;;;-4.00;99.90;;;;;;5008741;28;19971;-93
2023/03/01 03:01:56;;;;;;;;;;;-4.00;99.90;;;;;;5027232;28;19925;-95
2023/03/01 03:04:21;;;;;;;;;;;-4.00;99.90;;;;;;5010237;28;19948;-93
2023/03/01 03:06:48;;;;;;;;;;;-3.90;99.90;;;;;;5007523;28;19944;-95
2023/03/01 03:09:14;;;;;;;;;;;-4.00;99.90;;;;;;5017149;28;19933;-93
2023/03/01 03:11:41;;;;;;;;;;;-3.90;99.90;;;;;;5031732;28;19925;-95
2023/03/01 03:14:12;;;;;;;;;;;-3.90;99.90;;;;;;5040797;28;19970;-94
2023/03/01 03:16:41;;;;;;;;;;;-3.80;99.90;;;;;;5021714;28;19948;-94
2023/03/01 03:19:07;;;;;;;;;;;-3.90;99.90;;;;;;5030125;28;19993;-93
2023/03/01 03:21:33;;;;;;;;;;;-3.90;99.90;;;;;;5017795;28;19926;-93
2023/03/01 03:23:58;;;;;;;;;;;-4.00;99.90;;;;;;5023657;28;19941;-94
2023/03/01 03:26:24;;;;;;;;;;;-4.00;99.90;;;;;;5051102;28;19920;-94
2023/03/01 03:28:49;;;;;;;;;;;-4.00;99.90;;;;;;5026346;28;19932;-94
2023/03/01 03:31:15;;;;;;;;;;;-4.10;99.90;;;;;;5028526;28;19921;-94
2023/03/01 03:33:41;;;;;;;;;;;-4.20;99.90;;;;;;5025829;28;19969;-92
2023/03/01 03:36:12;;;;;;;;;;;-4.20;99.90;;;;;;5009296;28;20004;-92
2023/03/01 03:38:39;;;;;;;;;;;-4.20;99.90;;;;;;5020504;28;19948;-93
2023/03/01 03:41:07;;;;;;;;;;;-4.10;99.90;;;;;;5031738;28;20276;-93
2023/03/01 03:43:33;;;;;;;;;;;;;;;;;;5041503;28;19925;-94
2023/03/01 03:45:59;;;;;;;;;;;-4.20;99.90;;;;;;5026614;28;20468;-94
2023/03/01 03:48:25;;;;;;;;;;;-4.20;99.90;;;;;;5029499;28;19959;-93
2023/03/01 03:50:54;;;;;;;;;;;-4.10;99.90;;;;;;5031225;28;20040;-93
2023/03/01 03:53:22;;;;;;;;;;;-4.10;99.90;;;;;;5048336;28;19925;-93
2023/03/01 03:55:49;;;;;;;;;;;-4.10;99.90;;;;;;5034416;28;20331;-93
2023/03/01 03:58:15;;;;;;;;;;;-4.10;99.90;;;;;;5033091;28;19931;-94
2023/03/01 04:00:41;;;;;;;;;;;-4.10;99.90;;;;;;5025609;28;19932;-93
2023/03/01 04:03:08;;;;;;;;;;;-4.20;99.90;;;;;;5025208;28;19925;-93
2023/03/01 04:05:33;;;;;;;;;;;-4.20;99.90;;;;;;5031009;28;19988;-94
2023/03/01 04:08:02;;;;;;;;;;;;;;;;;;5069049;28;19925;-94
2023/03/01 04:10:32;;;;;;;;;;;-4.20;99.90;;;;;;5062176;28;19939;-94
2023/03/01 04:12:58;;;;;;;;;;;-4.20;99.90;;;;;;5028500;28;19925;-93
2023/03/01 04:15:24;;;;;;;;;;;;;;;;;;5013134;28;20320;-93
2023/03/01 04:17:51;;;;;;;;;;;-4.10;99.90;;;;;;5051573;28;19971;-94
2023/03/01 04:20:24;;;;;;;;;;;-4.10;99.90;;;;;;5026957;28;19925;-93
2023/03/01 04:22:57;;;;;;;;;;;-4.20;99.90;;;;;;5027089;28;19947;-93
2023/03/01 04:25:23;;;;;;;;;;;-4.20;99.90;;;;;;5037060;28;19924;-92
2023/03/01 04:27:48;;;;;;;;;;;-4.20;99.90;;;;;;5015119;28;19947;-93
2023/03/01 04:30:14;;;;;;;;;;;-4.40;99.90;;;;;;5024159;28;20010;-94
2023/03/01 04:32:40;;;;;;;;;;;-4.40;99.90;;;;;;5036276;28;20987;-93
2023/03/01 04:35:06;;;;;;;;;;;-4.30;99.90;;;;;;5029361;28;19935;-93
2023/03/01 04:37:31;;;;;;;;;;;-4.40;99.90;;;;;;5030278;28;20021;-92
2023/03/01 04:39:57;;;;;;;;;;;-4.40;99.90;;;;;;5028086;28;19925;-92
2023/03/01 04:42:22;;;;;;;;;;;-4.40;99.90;;;;;;5046622;28;19925;-92
2023/03/01 04:44:51;;;;;;;;;;;-4.40;99.90;;;;;;5027491;28;20252;-93
2023/03/01 04:47:17;;;;;;;;;;;-4.50;99.90;;;;;;5019338;28;19961;-95
2023/03/01 04:49:42;;;;;;;;;;;-4.50;99.90;;;;;;5078837;28;19936;-94
2023/03/01 04:52:09;;;;;;;;;;;-4.70;99.90;;;;;;5043100;28;19921;-94
2023/03/01 04:54:35;;;;;;;;;;;-4.80;99.90;;;;;;5022941;28;19931;-93
2023/03/01 04:57:01;;;;;;;;;;;-4.80;99.90;;;;;;5026223;28;20345;-95
2023/03/01 04:59:27;;;;;;;;;;;-4.90;99.90;;;;;;5044053;28;20035;-96
2023/03/01 05:01:57;;;;;;;;;;;-5.00;99.90;;;;;;5046615;28;19932;-96
2023/03/01 05:04:24;;;;;;;;;;;-5.00;99.90;;;;;;5028703;28;19995;-95
2023/03/01 05:06:50;;;;;;;;;;;;;;;;;;5026698;28;20076;-96
2023/03/01 05:09:16;;;;;;;;;;;;;;;;;;5024250;28;20004;-96
2023/03/01 05:11:42;;;;;;;;;;;-5.10;99.90;;;;;;5036706;28;19924;-95
2023/03/01 05:14:11;;;;;;;;;;;-5.10;99.90;;;;;;5027736;28;19925;-95
2023/03/01 05:16:37;;;;;;;;;;;-5.10;99.90;;;;;;5049638;28;19980;-96
2023/03/01 05:19:11;;;;;;;;;;;-5.20;99.90;;;;;;5051685;28;19948;-96
2023/03/01 05:22:01;;;;;;;;;;;;;;;;;;5040097;28;19991;-95
2023/03/01 05:24:23;;;;;;;;;;;-5.20;99.90;;;;;;5047400;28;19924;-96
2023/03/01 05:26:48;;;;;;;;;;;-5.20;99.90;;;;;;5041864;28;19970;-95
2023/03/01 05:29:14;;;;;;;;;;;-5.20;99.90;;;;;;5034539;28;19948;-96
2023/03/01 05:31:40;;;;;;;;;;;-5.20;99.90;;;;;;5010474;28;19935;-95
2023/03/01 05:34:07;;;;;;;;;;;;;;;;;;5033634;28;19931;-96
2023/03/01 05:36:32;;;;;;;;;;;-5.20;99.90;;;;;;5032677;28;20411;-96
2023/03/01 05:38:59;;;;;;;;;;;-5.30;99.90;;;;;;5055665;28;19929;-95
2023/03/01 05:41:28;;;;;;;;;;;-5.20;99.90;;;;;;5034493;28;19935;-95
2023/03/01 05:44:00;;;;;;;;;;;;;;;;;;5028192;28;19968;-96
2023/03/01 05:46:27;;;;;;;;;;;;;;;;;;5035673;28;19932;-95
2023/03/01 05:48:53;;;;;;;;;;;;;;;;;;5031505;28;19932;-95
2023/03/01 05:51:22;;;;;;;;;;;-5.30;99.90;;;;;;4961241;28;2023179;-95
2023/03/01 05:53:48;;;;;;;;;;;-5.30;99.90;;;;;;5034785;28;19925;-96
2023/03/01 05:56:16;;;;;;;;;;;-5.40;99.90;;;;;;5004184;28;20114;-95
2023/03/01 05:58:42;;;;;;;;;;;-5.20;99.90;;;;;;5025574;28;19967;-96
2023/03/01 06:01:11;;;;;;;;;;;-5.30;99.90;;;;;;5020724;28;19925;-95
2023/03/01 06:03:39;;;;;;;;;;;-5.40;99.90;;;;;;5024745;28;19925;-96
2023/03/01 06:06:05;;;;;;;;;;;-5.30;99.90;;;;;;5034326;28;19936;-96
2023/03/01 06:08:34;;;;;;;;;;;-5.30;99.90;;;;;;5030592;28;19945;-95
2023/03/01 06:11:00;;;;;;;;;;;;;;;;;;5021623;28;19921;-96
2023/03/01 06:13:27;;;;;;;;;;;-7.00;99.90;;;;;;5018830;28;19913;-95
2023/03/01 06:15:52;;;;;;;;;;;-5.40;99.90;;;;;;5024316;28;19925;-96
2023/03/01 06:18:20;;;;;;;;;;;-5.30;99.90;;;;;;5039108;28;19980;-96
2023/03/01 06:20:48;;;;;;;;;;;;;;;;;;5039851;28;19933;-95
2023/03/01 06:23:20;;;;;;;;;;;-5.30;99.90;;;;;;5031715;28;19925;-96
2023/03/01 06:25:46;;;;;;;;;;;-5.30;99.90;;;;;;5019959;28;19921;-95
2023/03/01 06:28:13;;;;;;;;;;;-5.30;99.90;;;;;;5018682;28;19929;-95
2023/03/01 06:30:44;;;;;;;;;;;;;;;;;;5018533;28;19929;-96
2023/03/01 06:33:10;;;;;;;;;;;;;;;;;;5018748;28;19921;-95
2023/03/01 06:35:38;;;;;;;;;;;-5.20;99.90;;;;;;5035240;28;19936;-95
2023/03/01 06:38:05;;;;;;;;;;;;;;;;;;5039132;28;19925;-96
2023/03/01 06:40:31;;;;;;;;;;;-5.20;99.90;;;;;;5027885;28;19984;-96
2023/03/01 06:42:57;;;;;;;;;;;;;;;;;;5034536;28;19925;-96
2023/03/01 06:45:23;;;;;;;;;;;-5.20;99.90;;;;;;5015452;28;19932;-95
2023/03/01 06:47:49;;;;;;;;;;;;;;;;;;5026166;28;19925;-95
2023/03/01 06:50:21;;;;;;;;;;;-5.00;99.90;;;;;;5024526;28;19922;-95
2023/03/01 06:52:55;;;;;;;;;;;-5.00;99.90;;;;;;5004117;28;19925;-95
2023/03/01 06:55:22;;;;;;;;;;;-5.00;99.90;;;;;;5020342;28;19925;-95
2023/03/01 06:57:48;;;;;;;;;;;-4.90;99.90;;;;;;5023222;28;19937;-96
2023/03/01 07:00:20;;;;;;;;;;;-4.90;99.90;;;;;;5044793;28;19925;-96
2023/03/01 07:02:45;;;;;;;;;;;-4.80;99.90;;;;;;5038229;28;19921;-96
2023/03/01 07:05:17;;;;;;;;;;;-4.60;99.90;;;;;;5054573;28;19988;-96
2023/03/01 07:07:43;;;;;;;;;;;-4.70;99.90;;;;;;5038027;28;20485;-96
2023/03/01 07:10:11;;;;;;;;;;;;;;;;;;5055259;28;20342;-96
2023/03/01 07:12:49;;;;;;;;;;;;;;;;;;5054872;28;19991;-96
2023/03/01 07:15:37;;;;;;;;;;;-4.30;99.90;;;;;;5059024;28;19980;-95
2023/03/01 07:18:06;;;;;;;;;;;-4.40;99.90;;;;;;5058900;28;20327;-96
2023/03/01 07:20:35;;;;;;;;;;;;;;;;;;5058500;28;20067;-94
2023/03/01 07:23:01;;;;;;;;;;;;;;;;;;5043474;28;19976;-96
2023/03/01 07:25:27;;;;;;;;;;;-4.00;99.90;;;;;;5041893;28;19967;-96
2023/03/01 07:27:53;;;;;;;;;;;;;;;;;;5024803;28;19936;-96
2023/03/01 07:30:20;;;;;;;;;;;-3.70;99.90;;;;;;5025839;28;19976;-95
2023/03/01 07:32:50;;;;;;;;;;;-3.60;99.90;;;;;;5057063;28;19924;-96
2023/03/01 07:35:16;;;;;;;;;;;;;;;;;;5034654;28;19932;-95
2023/03/01 07:37:45;;;;;;;;;;;-3.40;99.90;;;;;;5037982;28;20317;-96
2023/03/01 07:40:11;;;;;;;;;;;-3.30;99.90;;;;;;5023744;28;19956;-96
2023/03/01 07:42:40;;;;;;;;;;;;;;;;;;5033536;28;19978;-96
2023/03/01 07:45:06;;;;;;;;;;;-3.10;99.90;;;;;;5050765;28;19924;-96
2023/03/01 07:47:35;;;;;;;;;;;;;;;;;;5016310;28;19936;-96
2023/03/01 07:50:03;;;;;;;;;;;;;;;;;;5060773;28;19992;-96
2023/03/01 07:52:32;;;;;;;;;;;-2.80;99.90;;;;;;5042095;28;19956;-95
2023/03/01 07:54:58;;;;;;;;;;;-2.70;99.90;;;;;;4999694;28;20013;-96
2023/03/01 07:57:31;;;;;;;;;;;-2.60;99.90;;;;;;5042487;28;20019;-96
2023/03/01 07:59:58;;;;;;;;;;;-2.60;99.90;;;;;;5020492;28;19925;-96
2023/03/01 08:02:25;;;;;;;;;;;-2.50;99.90;;;;;;5038528;28;19964;-96
2023/03/01 08:04:53;;;;;;;;;;;-2.40;99.90;;;;;;5030222;28;19924;-96
2023/03/01 08:07:22;;;;;;;;;;;-2.20;99.90;;;;;;5033157;28;19972;-95
2023/03/01 08:09:51;;;;;;;;;;;-2.10;99.90;;;;;;5028494;28;19936;-95
2023/03/01 08:12:17;;;;;;;;;;;-2.10;99.90;;;;;;5031730;28;19924;-96
2023/03/01 08:14:46;;;;;;;;;;;-2.00;99.90;;;;;;5052154;28;19932;-96
2023/03/01 08:17:16;;;;;;;;;;;-2.00;99.90;;;;;;5034226;28;19925;-94
2023/03/01 08:19:42;;;;;;;;;;;-1.90;99.90;;;;;;5037896;28;19974;-94
2023/03/01 08:22:21;;;;;;;;;;;;;;;;;;;;;
2023/03/01 08:24:51;;;;;;;;;;;-1.80;99.90;;;;;;5051472;28;19964;-95
2023/03/01 08:27:17;;;;;;;;;;;-1.60;99.90;;;;;;5025401;28;19925;-95
2023/03/01 08:29:52;;;;;;;;;;;-1.70;99.90;;;;;;5062691;28;19936;-96
2023/03/01 08:32:30;;;;;;;;;;;-1.50;99.90;;;;;;5018021;28;19935;-95
2023/03/01 08:34:56;;;;;;;;;;;-1.60;99.90;;;;;;5027812;28;19925;-95
2023/03/01 08:37:22;;;;;;;;;;;-1.50;99.90;;;;;;5026419;28;20035;-95
2023/03/01 08:39:50;;;;;;;;;;;-1.50;99.90;;;;;;5021472;28;19975;-94
2023/03/01 08:42:16;;;;;;;;;;;-1.40;99.90;;;;;;5027371;28;19921;-94
2023/03/01 08:44:42;;;;;;;;;;;-1.40;99.90;;;;;;5042301;28;19921;-92
2023/03/01 08:47:07;;;;;;;;;;;-1.10;99.90;;;;;;5041517;28;19943;-93
2023/03/01 08:49:33;;;;;;;;;;;-4.10;99.90;;;;;;5013661;28;20003;-93
2023/03/01 08:51:59;;;;;;;;;;;-0.80;99.90;;;;;;5032326;28;19992;-93
2023/03/01 08:54:25;;;;;;;;;;;-2.60;99.90;;;;;;5000477;28;19925;-93
2023/03/01 08:56:51;;;;;;;;;;;-0.90;99.90;;;;;;5005494;28;20027;-92
2023/03/01 08:59:18;;;;;;;;;;;-0.80;99.90;;;;;;5039912;28;19929;-93
2023/03/01 09:01:45;;;;;;;;;;;1.00;99.90;;;;;;5051118;28;19924;-94
2023/03/01 09:04:11;;;;;;;;;;;-0.60;99.90;;;;;;5027362;28;19994;-94
2023/03/01 09:06:37;;;;;;;;;;;-0.10;99.90;;;;;;5008625;28;19928;-94
2023/03/01 09:09:04;;;;;;;;;;;0.70;99.90;;;;;;5020299;28;20383;-93
2023/03/01 09:11:29;;;;;;;;;;;-0.10;99.90;;;;;;5022023;28;19925;-95
2023/03/01 09:13:55;;;;;;;;;;;0.10;99.90;;;;;;5023128;28;19971;-95
2023/03/01 09:16:22;;;;;;;;;;;0.30;99.90;;;;;;5036137;28;19925;-93
2023/03/01 09:18:52;;;;;;;;;;;0.80;99.90;;;;;;5006670;28;20377;-93
2023/03/01 09:21:20;;;;;;;;;;;0.60;99.90;;;;;;5022936;28;19988;-94
2023/03/01 09:23:46;;;;;;;;;;;1.20;99.90;;;;;;5007170;28;19925;-94
2023/03/01 09:26:16;;;;;;;;;;;0.90;99.90;;;;;;5022257;28;19940;-93
2023/03/01 09:28:44;;;;;;;;;;;1.00;99.90;;;;;;5043218;28;19929;-94
2023/03/01 09:31:12;;;;;;;;;;;1.40;99.90;;;;;;5025533;28;19929;-93
2023/03/01 09:33:38;;;;;;;;;;;1.30;99.90;;;;;;5026747;28;19929;-93
2023/03/01 09:36:06;;;;;;;;;;;1.50;99.90;;;;;;5024917;28;20501;-95
2023/03/01 09:38:33;;;;;;;;;;;1.70;99.90;;;;;;5021827;28;19924;-93
2023/03/01 09:40:59;;;;;;;;;;;1.70;99.90;;;;;;5019267;28;19980;-94
2023/03/01 09:43:24;;;;;;;;;;;1.90;99.90;;;;;;5025517;28;19924;-95
2023/03/01 09:45:52;;;;;;;;;;;2.10;99.90;;;;;;5021204;28;19960;-92
2023/03/01 09:48:21;;;;;;;;;;;2.10;99.90;;;;;;5027469;28;19939;-94
2023/03/01 09:50:47;;;;;;;;;;;2.10;99.90;;;;;;5016619;28;19925;-95
2023/03/01 09:53:15;;;;;;;;;;;2.20;99.90;;;;;;5025103;28;19951;-95
2023/03/01 09:55:59;;;;;;;;;;;2.30;99.90;;;;;;5025723;28;19956;-94
2023/03/01 09:58:29;;;;;;;;;;;2.40;99.90;;;;;;5027105;28;19925;-96
2023/03/01 10:00:56;;;;;;;;;;;2.50;99.90;;;;;;5041410;28;19925;-96
2023/03/01 10:03:26;;;;;;;;;;;2.60;99.90;;;;;;5024080;28;19925;-93
2023/03/01 10:05:54;;;;;;;;;;;2.70;99.90;;;;;;5024714;28;19932;-94
2023/03/01 10:08:39;;;;;;;;;;;2.80;99.90;;;;;;5026411;28;19925;-95
2023/03/01 10:11:13;;;;;;;;;;;2.90;99.90;;;;;;5025040;28;19980;-95
2023/03/01 10:13:54;;;;;;;;;;;3.00;99.90;;;;;;5029043;28;19929;-93
2023/03/01 10:16:32;;;;;;;;;;;3.20;99.90;;;;;;5032847;28;19932;-93
2023/03/01 10:19:03;;;;;;;;;;;3.20;99.90;;;;;;5050039;28;19947;-93
2023/03/01 10:21:31;;;;;;;;;;;3.20;99.90;;;;;;5033636;28;19929;-93
2023/03/01 10:24:05;;;;;;;;;;;3.40;99.90;;;;;;5026218;28;19925;-93
2023/03/01 10:26:34;;;;;;;;;;;3.50;99.90;;;;;;5034707;28;20008;-94
2023/03/01 10:29:07;;;;;;;;;;;3.60;99.90;;;;;;5039726;28;19975;-94
2023/03/01 10:31:42;;;;;;;;;;;3.60;99.90;;;;;;5024573;28;19964;-94
2023/03/01 10:34:10;;;;;;;;;;;3.80;99.90;;;;;;5021663;28;19935;-92
2023/03/01 10:36:37;;;;;;;;;;;3.80;99.90;;;;;;5024708;28;19990;-95
2023/03/01 10:39:10;;;;;;;;;;;3.90;99.90;;;;;;5025261;28;19932;-93
2023/03/01 10:41:44;;;;;;;;;;;4.00;99.90;;;;;;5031973;28;19925;-93
2023/03/01 10:44:30;;;;;;;;;;;4.00;99.90;;;;;;5022047;28;19933;-95
2023/03/01 10:47:00;;;;;;;;;;;4.10;99.90;;;;;;5055718;28;19925;-94
2023/03/01 10:49:26;;;;;;;;;;;4.50;99.90;;;;;;5040818;28;19936;-94
2023/03/01 10:51:55;;;;;;;;;;;4.30;99.90;;;;;;5027644;28;19932;-93
2023/03/01 10:54:31;;;;;;;;;;;4.40;99.90;;;;;;5008631;28;19924;-94
2023/03/01 10:56:59;;;;;;;;;;;4.50;99.90;;;;;;5022848;28;19953;-96
2023/03/01 10:59:24;;;;;;;;;;;4.60;99.90;;;;;;5024043;28;19936;-94
2023/03/01 11:02:10;;;;;;;;;;;4.70;99.90;;;;;;5029611;28;19921;-93
2023/03/01 11:04:36;;;;;;;;;;;4.80;99.90;;;;;;5026840;28;19935;-93
2023/03/01 11:07:02;;;;;;;;;;;5.30;99.90;;;;;;5037578;28;19956;-93
2023/03/01 11:09:37;;;;;;;;;;;4.90;99.90;;;;;;5028359;28;20299;-94
2023/03/01 11:12:04;;;;;;;;;;;5.00;99.90;;;;;;5046961;28;19924;-93
2023/03/01 11:14:35;;;;;;;;;;;3.00;99.90;;;;;;5045544;28;19936;-93
2023/03/01 11:17:03;;;;;;;;;;;5.10;99.90;;;;;;5023795;28;19932;-95
2023/03/01 11:19:28;;;;;;;;;;;5.20;99.90;;;;;;5044551;28;19928;-96
2023/03/01 11:22:07;;;;;;;;;;;5.20;99.90;;;;;;5022434;28;19925;-95
2023/03/01 11:24:33;;;;;;;;;;;5.20;99.90;;;;;;5023617;28;19933;-94
2023/03/01 11:27:02;;;;;;;;;;;5.40;99.90;;;;;;5019341;28;19955;-95
2023/03/01 11:29:34;;;;;;;;;;;5.40;99.90;;;;;;5033390;28;19983;-94
2023/03/01 11:32:02;;;;;;;;;;;5.40;99.90;;;;;;5021984;28;19993;-95
2023/03/01 11:34:48;;;;;;;;;;;6.40;99.90;;;;;;5029752;28;19925;-94
2023/03/01 11:37:40;;;;;;;;;;;5.60;99.90;;;;;;5033365;28;19975;-94
2023/03/01 11:40:12;;;;;;;;;;;5.50;99.90;;;;;;5021306;28;20302;-95
2023/03/01 11:42:48;;;;;;;;;;;5.00;99.90;;;;;;5022545;28;19932;-94
2023/03/01 11:45:16;;;;;;;;;;;5.60;99.90;;;;;;5028416;28;19967;-94
2023/03/01 11:47:42;;;;;;;;;;;4.50;99.90;;;;;;5012178;28;19925;-96
2023/03/01 11:50:20;;;;;;;;;;;5.70;99.90;;;;;;5036730;28;19984;-93
2023/03/01 11:52:49;;;;;;;;;;;6.10;99.90;;;;;;5048316;28;19920;-95
2023/03/01 11:55:19;;;;;;;;;;;5.70;99.90;;;;;;5031853;28;19932;-94
2023/03/01 11:58:04;;;;;;;;;;;5.80;99.90;;;;;;5048239;28;19956;-95
2023/03/01 12:00:48;;;;;;;;;;;6.20;99.90;;;;;;5025688;28;19928;-94
2023/03/01 12:03:20;;;;;;;;;;;5.90;99.90;;;;;;5034213;28;19921;-95
2023/03/01 12:06:03;;;;;;;;;;;6.10;99.90;;;;;;5027656;28;20359;-94
2023/03/01 12:08:42;;;;;;;;;;;5.80;99.90;;;;;;5049197;28;19980;-94
2023/03/01 12:11:22;;;;;;;;;;;5.90;99.90;;;;;;5039661;28;19971;-93
2023/03/01 12:13:57;;;;;;;;;;;5.90;99.90;;;;;;5025996;28;19932;-94
2023/03/01 12:16:28;;;;;;;;;;;6.50;99.90;;;;;;5026341;28;19930;-94
2023/03/01 12:19:15;;;;;;;;;;;6.20;99.90;;;;;;5034593;28;20241;-93
2023/03/01 12:21:53;;;;;;;;;;;6.80;99.90;;;;;;5040548;28;19932;-93
2023/03/01 12:24:38;;;;;;;;;;;6.40;99.90;;;;;;5026961;28;19929;-94
2023/03/01 12:27:07;;;;;;;;;;;4.50;99.90;;;;;;5038944;28;19925;-93
2023/03/01 12:29:51;;;;;;;;;;;6.50;99.90;;;;;;5039962;28;19979;-93
2023/03/01 12:32:18;;;;;;;;;;;6.40;99.90;;;;;;5018546;28;19925;-93
2023/03/01 12:34:49;;;;;;;;;;;6.40;99.90;;;;;;5029198;28;19928;-94
2023/03/01 12:37:23;;;;;;;;;;;6.50;99.90;;;;;;5027455;28;19928;-93
2023/03/01 12:39:58;;;;;;;;;;;6.60;99.90;;;;;;5044735;28;19933;-94
2023/03/01 12:42:50;;;;;;;;;;;6.60;99.90;;;;;;5026334;28;19928;-94
2023/03/01 12:45:34;;;;;;;;;;;4.70;99.90;;;;;;5005859;28;19936;-95
2023/03/01 12:48:12;;;;;;;;;;;7.00;99.90;;;;;;5026421;28;19925;-94
2023/03/01 12:50:56;;;;;;;;;;;6.50;99.90;;;;;;5039308;28;20062;-96
2023/03/01 12:53:24;;;;;;;;;;;6.60;99.90;;;;;;5036993;28;19951;-93
2023/03/01 12:55:51;;;;;;;;;;;6.70;99.90;;;;;;5025002;28;19924;-94
2023/03/01 12:58:29;;;;;;;;;;;6.70;99.90;;;;;;5027498;28;19999;-92
2023/03/01 13:01:15;;;;;;;;;;;6.80;99.90;;;;;;5022191;28;19932;-95
2023/03/01 13:04:03;;;;;;;;;;;6.80;99.90;;;;;;5027861;28;20465;-95
2023/03/01 13:06:55;;;;;;;;;;;6.80;99.90;;;;;;5039230;28;20047;-94
2023/03/01 13:09:34;;;;;;;;;;;6.80;99.90;;;;;;5044379;28;19924;-96
2023/03/01 13:12:00;;;;;;;;;;;7.00;99.90;;;;;;5054265;28;20631;-96
2023/03/01 13:14:33;;;;;;;;;;;6.90;99.90;;;;;;5067845;28;19921;-95
2023/03/01 13:17:02;;;;;;;;;;;7.40;99.90;;;;;;5030078;28;20335;-94
2023/03/01 13:19:35;;;;;;;;;;;6.80;99.90;;;;;;5053159;28;20000;-94
2023/03/01 13:22:22;;;;;;;;;;;6.80;99.90;;;;;;5027433;28;19929;-94
2023/03/01 13:25:00;;;;;;;;;;;7.40;99.90;;;;;;5051065;28;19936;-94
2023/03/01 13:27:29;;;;;;;;;;;6.80;99.90;;;;;;5046855;28;19955;-96
2023/03/01 13:30:03;;;;;;;;;;;6.70;99.90;;;;;;5030158;28;19933;-94
2023/03/01 13:32:28;;;;;;;;;;;7.50;99.90;;;;;;5047038;28;19928;-94
2023/03/01 13:35:23;;;;;;;;;;;7.10;99.90;;;;;;5045836;28;19994;-93
2023/03/01 13:37:49;;;;;;;;;;;6.90;99.90;;;;;;5039429;28;19929;-94
2023/03/01 13:40:22;;;;;;;;;;;7.10;99.90;;;;;;5024135;28;19985;-94
2023/03/01 13:42:53;;;;;;;;;;;6.90;99.90;;;;;;5046500;28;19920;-94
2023/03/01 13:45:40;;;;;;;;;;;7.20;99.90;;;;;;5062099;28;19929;-95
2023/03/01 13:48:15;;;;;;;;;;;6.60;99.90;;;;;;5025058;28;19925;-94
2023/03/01 13:50:48;;;;;;;;;;;6.90;99.90;;;;;;5029428;28;19929;-95
2023/03/01 13:53:18;;;;;;;;;;;7.50;99.90;;;;;;5025240;28;19986;-96
2023/03/01 13:55:50;;;;;;;;;;;7.00;99.90;;;;;;5040580;28;19928;-95
2023/03/01 13:58:46;;;;;;;;;;;7.30;99.90;;;;;;5027944;28;19925;-95
2023/03/01 14:01:22;;;;;;;;;;;7.40;99.90;;;;;;5020574;28;19936;-95
2023/03/01 14:03:48;;;;;;;;;;;7.50;99.90;;;;;;5036023;28;19925;-96
2023/03/01 14:06:17;;;;;;;;;;;7.60;99.90;;;;;;5028682;28;19983;-95
2023/03/01 14:09:26;;;;;;;;;;;7.60;99.90;;;;;;5030914;28;19933;-96
2023/03/01 14:12:14;;;;;;;;;;;7.40;99.90;;;;;;4997892;28;19927;-95
2023/03/01 14:14:54;;;;;;;;;;;7.60;99.90;;;;;;5044930;28;19983;-95
2023/03/01 14:17:32;;;;;;;;;;;6.00;99.90;;;;;;5064244;28;19982;-94
2023/03/01 14:20:00;;;;;;;;;;;7.30;99.90;;;;;;5038519;28;19934;-95
2023/03/01 14:22:28;;;;;;;;;;;7.00;99.90;;;;;;5029783;28;19925;-95
2023/03/01 14:24:54;;;;;;;;;;;7.50;99.90;;;;;;5033324;28;19948;-95
2023/03/01 14:27:36;;;;;;;;;;;7.10;99.90;;;;;;5042913;28;20577;-96
2023/03/01 14:30:09;;;;;;;;;;;6.10;99.90;;;;;;5039117;28;20040;-95
2023/03/01 14:32:39;;;;;;;;;;;7.10;99.90;;;;;;5050771;28;19913;-96
2023/03/01 14:35:19;;;;;;;;;;;5.90;99.90;;;;;;5020277;28;19921;-95
2023/03/01 14:37:49;;;;;;;;;;;7.20;99.90;;;;;;5041254;28;19932;-93
2023/03/01 14:40:21;;;;;;;;;;;7.30;99.90;;;;;;5027085;28;19925;-94
2023/03/01 14:42:47;;;;;;;;;;;7.50;99.90;;;;;;5019918;28;19920;-94
2023/03/01 14:45:14;;;;;;;;;;;7.20;99.90;;;;;;5030507;28;19990;-95
2023/03/01 14:47:49;;;;;;;;;;;7.40;99.90;;;;;;5034272;28;19931;-95
2023/03/01 14:50:21;;;;;;;;;;;7.30;99.90;;;;;;5014803;28;19929;-94